Westgard — PDBQ — position and weather

sailwx.info

Track history (hours):
 
Tides and Currents Weather Stations Pressure Air Temp Water Temp Dewpoint Dewpoint Depression Visibility Wind Speed Wind Dir Waves Ship Positions

Westgard

Last reported at 2016-Jun-29 22:27 UTC. Time now 2016-Jun-30 15:59 UTC.
Position N 55°43' E 015°41'.

Length 89 m; draft 4 m.

Type: Ship. MMSI: 246457000.

Date/timePositionNaut miles runAvg speedWind from/ knotsBaromVisibWave heightAir tempDewpointWater temp
2016-Jun-29 22:27N 55°43' E 015°41'910.1
2016-Jun-29 21:33N 55°39' E 015°27'1110.4
2016-Jun-29 20:31N 55°34' E 015°10'1010.5
2016-Jun-29 19:33N 55°29' E 014°54'1010.3
2016-Jun-29 18:33N 55°24' E 014°39'1010.2
2016-Jun-29 17:33N 55°16' E 014°27'10 9.7
2016-Jun-29 16:33N 55°10' E 014°14'1010.1
2016-Jun-29 15:33N 55°07' E 013°57'59 9.9
2016-Jun-29 09:33N 54°36' E 012°29'10 9.8
2016-Jun-29 08:33N 54°30' E 012°16'9 8.8
2016-Jun-29 07:30N 54°25' E 012°02'9 9.8
2016-Jun-29 06:33N 54°25' E 011°47'10 9.5
2016-Jun-29 05:33N 54°29' E 011°32'10 9.5
2016-Jun-29 04:33N 54°32' E 011°16'10 9.7
2016-Jun-29 03:33N 54°34' E 010°60'28 9.2
2016-Jun-29 00:33N 54°26' E 010°14'5 5.4
2016-Jun-28 23:33N 54°22' E 010°08'4 4.1
2016-Jun-28 22:29N 54°21' E 010°01'29 7.2
2016-Jun-28 18:24N 54°05' E 009°19'7 8.4
2016-Jun-28 17:33N 53°58' E 009°16'6 6.3
2016-Jun-28 16:33N 53°54' E 009°09'4 3.6
2016-Jun-28 15:33N 53°52' E 009°03'1312.2
2016-Jun-28 14:30N 53°54' E 008°42'1213.0
2016-Jun-28 13:33N 53°59' E 008°23'1313.1
2016-Jun-28 12:33N 53°58' E 008°01'6 5.4
2016-Jun-28 11:31N 53°54' E 007°53'0 0.0
2016-Jun-28 10:31N 53°54' E 007°53'0 0.1
2016-Jun-28 09:31N 53°54' E 007°53'0 0.0
2016-Jun-28 06:09N 53°54' E 007°53'0 0.1
2016-Jun-28 04:33N 53°54' E 007°53'0 0.0
2016-Jun-28 03:33N 53°54' E 007°53'0 0.0
2016-Jun-28 02:33N 53°54' E 007°53'0 0.0
2016-Jun-28 01:33N 53°54' E 007°53'0 0.0
2016-Jun-28 00:24N 53°54' E 007°53'0 0.0
2016-Jun-27 23:33N 53°54' E 007°53'0 0.0
2016-Jun-27 22:33N 53°54' E 007°53'0 0.0
2016-Jun-27 21:30N 53°54' E 007°53'0 0.1
2016-Jun-27 20:30N 53°54' E 007°53'0 0.0
2016-Jun-27 19:30N 53°54' E 007°53'0 0.4
2016-Jun-27 18:34N 53°55' E 007°53'7 6.9
2016-Jun-27 17:33N 53°51' E 008°03'1111.2
2016-Jun-27 16:33N 53°43' E 008°17'10 9.9
2016-Jun-27 15:33N 53°37' E 008°29'7 7.2
2016-Jun-27 14:33N 53°30' E 008°30'9 9.3
2016-Jun-27 13:33N 53°20' E 008°30'10 9.7
2016-Jun-27 12:33N 53°11' E 008°34'6 6.2
2016-Jun-27 11:31N 53°07' E 008°43'1 0.7
2016-Jun-27 10:31N 53°07' E 008°44'0 0.0
2016-Jun-27 09:32N 53°07' E 008°44'0 0.0
2016-Jun-27 08:31N 53°07' E 008°44'0 0.0
2016-Jun-27 07:31N 53°07' E 008°44'0 0.0
2016-Jun-27 06:31N 53°07' E 008°44'0 0.0
2016-Jun-27 05:31N 53°07' E 008°44'0 0.0
2016-Jun-27 04:31N 53°07' E 008°44'0 0.0
2016-Jun-27 03:31N 53°07' E 008°44'0 0.0
2016-Jun-27 02:31N 53°07' E 008°44'0 0.0
2016-Jun-27 01:31N 53°07' E 008°44'0 0.0
2016-Jun-27 00:31N 53°07' E 008°44'0 0.0
2016-Jun-26 23:31N 53°07' E 008°44'0 0.0
2016-Jun-26 22:31N 53°07' E 008°44'0 0.0
2016-Jun-26 21:33N 53°07' E 008°44'0 0.0
2016-Jun-26 20:31N 53°07' E 008°44'0 0.0
2016-Jun-26 19:31N 53°07' E 008°44'0 0.0
2016-Jun-26 18:31N 53°07' E 008°44'0 0.0
2016-Jun-26 17:31N 53°07' E 008°44'0 0.0
2016-Jun-26 16:34N 53°07' E 008°44'0 0.0
2016-Jun-26 15:33N 53°07' E 008°44'0 0.0
2016-Jun-26 14:33N 53°07' E 008°44'0 0.0
2016-Jun-26 13:34N 53°07' E 008°44'0 0.0
2016-Jun-26 12:33N 53°07' E 008°44'0 0.0
2016-Jun-26 11:33N 53°07' E 008°44'0 0.0
2016-Jun-26 10:33N 53°07' E 008°44'0 0.0
2016-Jun-26 09:33N 53°07' E 008°44'0 0.0
2016-Jun-26 08:33N 53°07' E 008°44'0 0.0
2016-Jun-26 07:33N 53°07' E 008°44'0 0.0
2016-Jun-26 06:33N 53°07' E 008°44'0 0.0
2016-Jun-26 05:33N 53°07' E 008°44'0 0.0
2016-Jun-26 04:33N 53°07' E 008°44'0 0.0
2016-Jun-26 03:33N 53°07' E 008°44'0 0.0
2016-Jun-26 02:33N 53°07' E 008°44'0 0.0
2016-Jun-26 01:33N 53°07' E 008°44'0 0.0
2016-Jun-26 00:33N 53°07' E 008°44'0 0.0
2016-Jun-25 23:33N 53°07' E 008°44'0 0.0
2016-Jun-25 22:33N 53°07' E 008°44'0 0.0
2016-Jun-25 21:33N 53°07' E 008°44'0 0.0
2016-Jun-25 20:33N 53°07' E 008°44'0 0.0
2016-Jun-25 19:33N 53°07' E 008°44'0 0.0
2016-Jun-25 18:33N 53°07' E 008°44'0 0.0
2016-Jun-25 17:33N 53°07' E 008°44'0 0.0
2016-Jun-25 16:33N 53°07' E 008°44'0 0.0
2016-Jun-25 15:33N 53°07' E 008°44'0 0.0
2016-Jun-25 14:33N 53°07' E 008°44'0 0.0
2016-Jun-25 13:33N 53°07' E 008°44'0 0.0
2016-Jun-25 12:33N 53°07' E 008°44'0 0.0
2016-Jun-25 11:33N 53°07' E 008°44'0 0.0
2016-Jun-25 10:33N 53°07' E 008°44'0 0.0
2016-Jun-25 09:33N 53°07' E 008°44'0 0.0
2016-Jun-25 08:33N 53°07' E 008°44'0 0.0
2016-Jun-25 07:33N 53°07' E 008°44'0 0.0
2016-Jun-25 06:32N 53°07' E 008°44'0 0.0
2016-Jun-25 05:32N 53°07' E 008°44'0 0.0
2016-Jun-25 04:32N 53°07' E 008°44'0 0.0
2016-Jun-25 03:32N 53°07' E 008°44'0 0.0
2016-Jun-25 02:32N 53°07' E 008°44'0 0.0
2016-Jun-25 01:32N 53°07' E 008°44'0 0.0
2016-Jun-25 00:32N 53°07' E 008°44'0 0.0
2016-Jun-24 23:32N 53°07' E 008°44'0 0.0
2016-Jun-24 22:32N 53°07' E 008°44'0 0.0
2016-Jun-24 21:32N 53°07' E 008°44'0 0.0
2016-Jun-24 20:32N 53°07' E 008°44'0 0.0
2016-Jun-24 19:32N 53°07' E 008°44'0 0.0
2016-Jun-24 18:32N 53°07' E 008°44'0 0.0
2016-Jun-24 17:32N 53°07' E 008°44'0 0.0
2016-Jun-24 16:32N 53°07' E 008°44'0 0.0
2016-Jun-24 15:32N 53°07' E 008°44'0 0.0
2016-Jun-24 14:32N 53°07' E 008°44'0 0.0
2016-Jun-24 13:32N 53°07' E 008°44'0 0.0
2016-Jun-24 12:32N 53°07' E 008°44'0 0.0
2016-Jun-24 11:32N 53°07' E 008°44'0 0.0
2016-Jun-24 10:32N 53°07' E 008°44'0 0.0
2016-Jun-24 09:32N 53°07' E 008°44'0 0.0
2016-Jun-24 08:32N 53°07' E 008°44'0 0.0
2016-Jun-24 07:32N 53°07' E 008°44'0 0.0
2016-Jun-24 04:32N 53°07' E 008°44'0 0.0
2016-Jun-24 03:32N 53°07' E 008°44'0 0.0
2016-Jun-24 02:32N 53°07' E 008°44'0 0.0
2016-Jun-24 01:32N 53°07' E 008°44'0 0.0
2016-Jun-24 00:32N 53°07' E 008°44'0 0.0
2016-Jun-23 23:32N 53°07' E 008°44'0 0.0
2016-Jun-23 22:31N 53°07' E 008°44'0 0.0
2016-Jun-23 21:31N 53°07' E 008°44'0 0.0
2016-Jun-23 20:31N 53°07' E 008°44'0 0.0
2016-Jun-23 19:31N 53°07' E 008°44'0 0.0
2016-Jun-23 18:31N 53°07' E 008°44'0 0.0
2016-Jun-23 17:31N 53°07' E 008°44'0 0.0
2016-Jun-23 16:31N 53°07' E 008°44'0 0.0
2016-Jun-23 15:31N 53°07' E 008°44'0 0.0
2016-Jun-23 14:31N 53°07' E 008°44'0 0.0
2016-Jun-23 13:31N 53°07' E 008°44'0 0.0
2016-Jun-23 12:31N 53°07' E 008°44'0 0.0
2016-Jun-23 11:31N 53°07' E 008°44'0 0.0
2016-Jun-23 10:31N 53°07' E 008°44'0 0.0
2016-Jun-23 09:33N 53°07' E 008°44'0 0.0
2016-Jun-23 08:31N 53°07' E 008°44'0 0.0
2016-Jun-23 07:31N 53°07' E 008°44'0 0.0
2016-Jun-23 05:31N 53°07' E 008°44'0 0.0
2016-Jun-23 04:31N 53°07' E 008°44'0 0.0
2016-Jun-23 03:31N 53°07' E 008°44'0 0.0
2016-Jun-23 02:31N 53°07' E 008°44'0 0.0
2016-Jun-23 01:31N 53°07' E 008°44'0 0.0
2016-Jun-23 00:31N 53°07' E 008°44'0 0.0
2016-Jun-22 23:31N 53°07' E 008°44'0 0.0
2016-Jun-22 22:31N 53°07' E 008°44'1 0.8
2016-Jun-22 21:33N 53°07' E 008°43'1 0.9
2016-Jun-22 20:33N 53°07' E 008°41'7 7.1
2016-Jun-22 19:33N 53°12' E 008°32'8 7.9
2016-Jun-22 18:33N 53°19' E 008°29'7 7.4
2016-Jun-22 17:33N 53°27' E 008°29'6 6.4
2016-Jun-22 16:33N 53°33' E 008°34'8 7.7
2016-Jun-22 15:33N 53°39' E 008°25'9 8.3
2016-Jun-22 14:27N 53°44' E 008°13'17 9.0
2016-Jun-22 12:33N 53°53' E 007°48'1110.6
2016-Jun-22 11:32N 53°54' E 007°30'1111.1
2016-Jun-22 10:33N 53°51' E 007°12'1211.7
2016-Jun-22 09:33N 53°48' E 006°53'1211.9
2016-Jun-22 08:33N 53°46' E 006°33'1212.0
2016-Jun-22 07:32N 53°42' E 006°13'1111.6
2016-Jun-22 06:33N 53°39' E 005°55'1111.3
2016-Jun-22 05:33N 53°35' E 005°37'1110.9
2016-Jun-22 04:33N 53°32' E 005°19'1010.1
2016-Jun-22 03:33N 53°29' E 005°03'27 9.1
2016-Jun-22 00:32N 53°09' E 004°31'10 9.7
2016-Jun-21 23:33N 53°01' E 004°23'32 9.4
2016-Jun-21 20:07N 52°35' E 003°53'6 9.8
2016-Jun-21 19:33N 52°30' E 003°46'10 9.8
2016-Jun-21 18:31N 52°23' E 003°35'6311.8
2016-Jun-21 13:10N 51°37' E 002°26'812.1
2016-Jun-21 12:33N 51°31' E 002°19'1111.4
2016-Jun-21 11:33N 51°21' E 002°09'1110.8
2016-Jun-21 10:33N 51°13' E 001°58'1010.0
2016-Jun-21 09:33N 51°08' E 001°44'8 7.9
2016-Jun-21 08:33N 51°03' E 001°35'66 8.2
2016-Jun-21 00:33N 50°22' E 000°13'1110.2
2016-Jun-20 23:28N 50°19' W 000°04'11111.2
2016-Jun-20 13:33N 50°07' W 002°56'9 8.8
2016-Jun-20 12:33N 50°06' W 003°09'9 9.3
2016-Jun-20 11:33N 50°04' W 003°24'10 9.7
2016-Jun-20 10:33N 50°03' W 003°39'2410.2
2016-Jun-20 08:11N 49°60' W 004°16'710.5
2016-Jun-20 07:33N 49°59' W 004°26'  
Track history (hours):
 
Tides and Currents Weather Stations Pressure Air Temp Water Temp Dewpoint Dewpoint Depression Visibility Wind Speed Wind Dir Waves Ship Positions

Westgard

Last reported at 2016-Jun-29 22:27 UTC. Time now 2016-Jun-30 15:59 UTC.
Position N 55°43' E 015°41'.

Length 89 m; draft 4 m.

Type: Ship. MMSI: 246457000.

Date/timePositionNaut miles runAvg speedWind from/ knotsBaromVisibWave heightAir tempDewpointWater temp
2016-Jun-29 22:27N 55°43' E 015°41'910.1
2016-Jun-29 21:33N 55°39' E 015°27'1110.4
2016-Jun-29 20:31N 55°34' E 015°10'1010.5
2016-Jun-29 19:33N 55°29' E 014°54'1010.3
2016-Jun-29 18:33N 55°24' E 014°39'1010.2
2016-Jun-29 17:33N 55°16' E 014°27'10 9.7
2016-Jun-29 16:33N 55°10' E 014°14'1010.1
2016-Jun-29 15:33N 55°07' E 013°57'59 9.9
2016-Jun-29 09:33N 54°36' E 012°29'10 9.8
2016-Jun-29 08:33N 54°30' E 012°16'9 8.8
2016-Jun-29 07:30N 54°25' E 012°02'9 9.8
2016-Jun-29 06:33N 54°25' E 011°47'10 9.5
2016-Jun-29 05:33N 54°29' E 011°32'10 9.5
2016-Jun-29 04:33N 54°32' E 011°16'10 9.7
2016-Jun-29 03:33N 54°34' E 010°60'28 9.2
2016-Jun-29 00:33N 54°26' E 010°14'5 5.4
2016-Jun-28 23:33N 54°22' E 010°08'4 4.1
2016-Jun-28 22:29N 54°21' E 010°01'29 7.2
2016-Jun-28 18:24N 54°05' E 009°19'7 8.4
2016-Jun-28 17:33N 53°58' E 009°16'6 6.3
2016-Jun-28 16:33N 53°54' E 009°09'4 3.6
2016-Jun-28 15:33N 53°52' E 009°03'1312.2
2016-Jun-28 14:30N 53°54' E 008°42'1213.0
2016-Jun-28 13:33N 53°59' E 008°23'1313.1
2016-Jun-28 12:33N 53°58' E 008°01'6 5.4
2016-Jun-28 11:31N 53°54' E 007°53'0 0.0
2016-Jun-28 10:31N 53°54' E 007°53'0 0.1
2016-Jun-28 09:31N 53°54' E 007°53'0 0.0
2016-Jun-28 06:09N 53°54' E 007°53'0 0.1
2016-Jun-28 04:33N 53°54' E 007°53'0 0.0
2016-Jun-28 03:33N 53°54' E 007°53'0 0.0
2016-Jun-28 02:33N 53°54' E 007°53'0 0.0
2016-Jun-28 01:33N 53°54' E 007°53'0 0.0
2016-Jun-28 00:24N 53°54' E 007°53'0 0.0
2016-Jun-27 23:33N 53°54' E 007°53'0 0.0
2016-Jun-27 22:33N 53°54' E 007°53'0 0.0
2016-Jun-27 21:30N 53°54' E 007°53'0 0.1
2016-Jun-27 20:30N 53°54' E 007°53'0 0.0
2016-Jun-27 19:30N 53°54' E 007°53'0 0.4
2016-Jun-27 18:34N 53°55' E 007°53'7 6.9
2016-Jun-27 17:33N 53°51' E 008°03'1111.2
2016-Jun-27 16:33N 53°43' E 008°17'10 9.9
2016-Jun-27 15:33N 53°37' E 008°29'7 7.2
2016-Jun-27 14:33N 53°30' E 008°30'9 9.3
2016-Jun-27 13:33N 53°20' E 008°30'10 9.7
2016-Jun-27 12:33N 53°11' E 008°34'6 6.2
2016-Jun-27 11:31N 53°07' E 008°43'1 0.7
2016-Jun-27 10:31N 53°07' E 008°44'0 0.0
2016-Jun-27 09:32N 53°07' E 008°44'0 0.0
2016-Jun-27 08:31N 53°07' E 008°44'0 0.0
2016-Jun-27 07:31N 53°07' E 008°44'0 0.0
2016-Jun-27 06:31N 53°07' E 008°44'0 0.0
2016-Jun-27 05:31N 53°07' E 008°44'0 0.0
2016-Jun-27 04:31N 53°07' E 008°44'0 0.0
2016-Jun-27 03:31N 53°07' E 008°44'0 0.0
2016-Jun-27 02:31N 53°07' E 008°44'0 0.0
2016-Jun-27 01:31N 53°07' E 008°44'0 0.0
2016-Jun-27 00:31N 53°07' E 008°44'0 0.0
2016-Jun-26 23:31N 53°07' E 008°44'0 0.0
2016-Jun-26 22:31N 53°07' E 008°44'0 0.0
2016-Jun-26 21:33N 53°07' E 008°44'0 0.0
2016-Jun-26 20:31N 53°07' E 008°44'0 0.0
2016-Jun-26 19:31N 53°07' E 008°44'0 0.0
2016-Jun-26 18:31N 53°07' E 008°44'0 0.0
2016-Jun-26 17:31N 53°07' E 008°44'0 0.0
2016-Jun-26 16:34N 53°07' E 008°44'0 0.0
2016-Jun-26 15:33N 53°07' E 008°44'0 0.0
2016-Jun-26 14:33N 53°07' E 008°44'0 0.0
2016-Jun-26 13:34N 53°07' E 008°44'0 0.0
2016-Jun-26 12:33N 53°07' E 008°44'0 0.0
2016-Jun-26 11:33N 53°07' E 008°44'0 0.0
2016-Jun-26 10:33N 53°07' E 008°44'0 0.0
2016-Jun-26 09:33N 53°07' E 008°44'0 0.0
2016-Jun-26 08:33N 53°07' E 008°44'0 0.0
2016-Jun-26 07:33N 53°07' E 008°44'0 0.0
2016-Jun-26 06:33N 53°07' E 008°44'0 0.0
2016-Jun-26 05:33N 53°07' E 008°44'0 0.0
2016-Jun-26 04:33N 53°07' E 008°44'0 0.0
2016-Jun-26 03:33N 53°07' E 008°44'0 0.0
2016-Jun-26 02:33N 53°07' E 008°44'0 0.0
2016-Jun-26 01:33N 53°07' E 008°44'0 0.0
2016-Jun-26 00:33N 53°07' E 008°44'0 0.0
2016-Jun-25 23:33N 53°07' E 008°44'0 0.0
2016-Jun-25 22:33N 53°07' E 008°44'0 0.0
2016-Jun-25 21:33N 53°07' E 008°44'0 0.0
2016-Jun-25 20:33N 53°07' E 008°44'0 0.0
2016-Jun-25 19:33N 53°07' E 008°44'0 0.0
2016-Jun-25 18:33N 53°07' E 008°44'0 0.0
2016-Jun-25 17:33N 53°07' E 008°44'0 0.0
2016-Jun-25 16:33N 53°07' E 008°44'0 0.0
2016-Jun-25 15:33N 53°07' E 008°44'0 0.0
2016-Jun-25 14:33N 53°07' E 008°44'0 0.0
2016-Jun-25 13:33N 53°07' E 008°44'0 0.0
2016-Jun-25 12:33N 53°07' E 008°44'0 0.0
2016-Jun-25 11:33N 53°07' E 008°44'0 0.0
2016-Jun-25 10:33N 53°07' E 008°44'0 0.0
2016-Jun-25 09:33N 53°07' E 008°44'0 0.0
2016-Jun-25 08:33N 53°07' E 008°44'0 0.0
2016-Jun-25 07:33N 53°07' E 008°44'0 0.0
2016-Jun-25 06:32N 53°07' E 008°44'0 0.0
2016-Jun-25 05:32N 53°07' E 008°44'0 0.0
2016-Jun-25 04:32N 53°07' E 008°44'0 0.0
2016-Jun-25 03:32N 53°07' E 008°44'0 0.0
2016-Jun-25 02:32N 53°07' E 008°44'0 0.0
2016-Jun-25 01:32N 53°07' E 008°44'0 0.0
2016-Jun-25 00:32N 53°07' E 008°44'0 0.0
2016-Jun-24 23:32N 53°07' E 008°44'0 0.0
2016-Jun-24 22:32N 53°07' E 008°44'0 0.0
2016-Jun-24 21:32N 53°07' E 008°44'0 0.0
2016-Jun-24 20:32N 53°07' E 008°44'0 0.0
2016-Jun-24 19:32N 53°07' E 008°44'0 0.0
2016-Jun-24 18:32N 53°07' E 008°44'0 0.0
2016-Jun-24 17:32N 53°07' E 008°44'0 0.0
2016-Jun-24 16:32N 53°07' E 008°44'0 0.0
2016-Jun-24 15:32N 53°07' E 008°44'0 0.0
2016-Jun-24 14:32N 53°07' E 008°44'0 0.0
2016-Jun-24 13:32N 53°07' E 008°44'0 0.0
2016-Jun-24 12:32N 53°07' E 008°44'0 0.0
2016-Jun-24 11:32N 53°07' E 008°44'0 0.0
2016-Jun-24 10:32N 53°07' E 008°44'0 0.0
2016-Jun-24 09:32N 53°07' E 008°44'0 0.0
2016-Jun-24 08:32N 53°07' E 008°44'0 0.0
2016-Jun-24 07:32N 53°07' E 008°44'0 0.0
2016-Jun-24 04:32N 53°07' E 008°44'0 0.0
2016-Jun-24 03:32N 53°07' E 008°44'0 0.0
2016-Jun-24 02:32N 53°07' E 008°44'0 0.0
2016-Jun-24 01:32N 53°07' E 008°44'0 0.0
2016-Jun-24 00:32N 53°07' E 008°44'0 0.0
2016-Jun-23 23:32N 53°07' E 008°44'0 0.0
2016-Jun-23 22:31N 53°07' E 008°44'0 0.0
2016-Jun-23 21:31N 53°07' E 008°44'0 0.0
2016-Jun-23 20:31N 53°07' E 008°44'0 0.0
2016-Jun-23 19:31N 53°07' E 008°44'0 0.0
2016-Jun-23 18:31N 53°07' E 008°44'0 0.0
2016-Jun-23 17:31N 53°07' E 008°44'0 0.0
2016-Jun-23 16:31N 53°07' E 008°44'0 0.0
2016-Jun-23 15:31N 53°07' E 008°44'0 0.0
2016-Jun-23 14:31N 53°07' E 008°44'0 0.0
2016-Jun-23 13:31N 53°07' E 008°44'0 0.0
2016-Jun-23 12:31N 53°07' E 008°44'0 0.0
2016-Jun-23 11:31N 53°07' E 008°44'0 0.0
2016-Jun-23 10:31N 53°07' E 008°44'0 0.0
2016-Jun-23 09:33N 53°07' E 008°44'0 0.0
2016-Jun-23 08:31N 53°07' E 008°44'0 0.0
2016-Jun-23 07:31N 53°07' E 008°44'0 0.0
2016-Jun-23 05:31N 53°07' E 008°44'0 0.0
2016-Jun-23 04:31N 53°07' E 008°44'0 0.0
2016-Jun-23 03:31N 53°07' E 008°44'0 0.0
2016-Jun-23 02:31N 53°07' E 008°44'0 0.0
2016-Jun-23 01:31N 53°07' E 008°44'0 0.0
2016-Jun-23 00:31N 53°07' E 008°44'0 0.0
2016-Jun-22 23:31N 53°07' E 008°44'0 0.0
2016-Jun-22 22:31N 53°07' E 008°44'1 0.8
2016-Jun-22 21:33N 53°07' E 008°43'1 0.9
2016-Jun-22 20:33N 53°07' E 008°41'7 7.1
2016-Jun-22 19:33N 53°12' E 008°32'8 7.9
2016-Jun-22 18:33N 53°19' E 008°29'7 7.4
2016-Jun-22 17:33N 53°27' E 008°29'6 6.4
2016-Jun-22 16:33N 53°33' E 008°34'8 7.7
2016-Jun-22 15:33N 53°39' E 008°25'9 8.3
2016-Jun-22 14:27N 53°44' E 008°13'17 9.0
2016-Jun-22 12:33N 53°53' E 007°48'1110.6
2016-Jun-22 11:32N 53°54' E 007°30'1111.1
2016-Jun-22 10:33N 53°51' E 007°12'1211.7
2016-Jun-22 09:33N 53°48' E 006°53'1211.9
2016-Jun-22 08:33N 53°46' E 006°33'1212.0
2016-Jun-22 07:32N 53°42' E 006°13'1111.6
2016-Jun-22 06:33N 53°39' E 005°55'1111.3
2016-Jun-22 05:33N 53°35' E 005°37'1110.9
2016-Jun-22 04:33N 53°32' E 005°19'1010.1
2016-Jun-22 03:33N 53°29' E 005°03'27 9.1
2016-Jun-22 00:32N 53°09' E 004°31'10 9.7
2016-Jun-21 23:33N 53°01' E 004°23'32 9.4
2016-Jun-21 20:07N 52°35' E 003°53'6 9.8
2016-Jun-21 19:33N 52°30' E 003°46'10 9.8
2016-Jun-21 18:31N 52°23' E 003°35'6311.8
2016-Jun-21 13:10N 51°37' E 002°26'812.1
2016-Jun-21 12:33N 51°31' E 002°19'1111.4
2016-Jun-21 11:33N 51°21' E 002°09'1110.8
2016-Jun-21 10:33N 51°13' E 001°58'1010.0
2016-Jun-21 09:33N 51°08' E 001°44'8 7.9
2016-Jun-21 08:33N 51°03' E 001°35'66 8.2
2016-Jun-21 00:33N 50°22' E 000°13'1110.2
2016-Jun-20 23:28N 50°19' W 000°04'11111.2
2016-Jun-20 13:33N 50°07' W 002°56'9 8.8
2016-Jun-20 12:33N 50°06' W 003°09'9 9.3
2016-Jun-20 11:33N 50°04' W 003°24'10 9.7
2016-Jun-20 10:33N 50°03' W 003°39'2410.2
2016-Jun-20 08:11N 49°60' W 004°16'710.5
2016-Jun-20 07:33N 49°59' W 004°26'  

Dump ship's entire track history